Ault, CO

5:05 AM MDT on August 28, 2014 (GMT -0600)
KCOAULT2 | Change Station
CLOSE
Current Station
Personal Weather Station
Location: Ault, CO
Elevation: 4915 ft
Nearby Weather Stations

Elev 4915 ft 40.58 °N, 104.70 °W | Updated 2 minutes ago

Clear
Clear
51.5 °F
Feels Like 51.5 °F
N
0.0
Wind Variable Wind from WNW

Today
High -- | Low -- °F
--% Chance of Precip.
Yesterday
High -- | Low -- °F
Precip. -- in
6:22 AM 7:37 PM
Waxing Crescent, 7% visible
Pressure 30.11 in
Visibility 10.0 miles
Clouds Clear
Dew Point 48 °F
Humidity 88%
Rainfall 0.00 in
Snow Depth Not available.
UV 0 out of 12
Pollen 7.90 out of 12
Air Quality Not available.
Flu Activity Not available.
METAR KGXY 281055Z AUTO 32004KT 10SM CLR 10/06 A3011 RMK AO1

More Conditions Fewer Conditions

Pressure 30.11 in
Visibility 10.0 miles
Clouds Clear
Dew Point 48 °F
Humidity 88%
Rainfall 0.00 in
Snow Depth Not available.
UV 0 out of 12
Pollen 7.90 out of 12
Air Quality Not available.
Flu Activity Not available.
METAR KGXY 281055Z AUTO 32004KT 10SM CLR 10/06 A3011 RMK AO1

More Conditions Fewer Conditions

10-Day Weather Forecast

Almanac

Astronomy

Aug. 28, 2014 Rise Set
Actual Time 6:22 AM MDT 7:37 PM MDT
Civil Twilight 5:53 AM MDT 8:05 PM MDT
Nautical Twilight 5:19 AM MDT 8:39 PM MDT
Astronomical Twilight 4:44 AM MDT 9:14 PM MDT
Moon 9:17 AM MDT 9:01 PM MDT
Length of Visible Light 14h 11m
Length of Day
13h 15m
Tomorrow will be 2m 33s shorter.
Waxing Crescent, 7% of the Moon is Illuminated
Today
Waxing Crescent
Sep 2
First Quarter
Sep 8
Full
Sep 15
Last Quarter
Sep 24
New

Today's Extremes

State Highs State Lows

Community

WunderPhotos

Upload Photos

1,747,923 photos uploaded!

Nearby

Air Quality

  Air Quality AQ Index Pollutant
Yesterday Good
OZONE
Thursday Good
PM2.5
Thursday Good
OZONE

Snow Depth

Station Depth Elevation
Copeland Lake 0 in 8600 ft
Willow Park 1 in 10700 ft
Wild Basin 0 in 9560 ft
Lake Irene 1 in 10700 ft
Joe Wright 0 in 10120 ft

Earthquake Activity

City Distance Mag. Time & Date
No recent earthquake activity has been reported nearby.
Minimum magnitude displayed is 2.5.

Coastal Water Temperatures

Place Temperature
No Stations Reporting

Nearby Weather Stations